Hauptseite
METAR-TAF:

METAR-TAF

Flughäfen :

Flughafen Kosrae

Kosrae, Mikronesien

Breite: 05-21N, Länge: 162-57E, Höhe: 3 m

Beobachtung

Neuester Wetterbericht von vor 5 Stunden und 9 Minuten, um 03:00 UTC
Wind 10 kt aus Nord
Temperatur 31°C
Luftfeuchtigkeit 71%
Luftdruck 1005 hPa
Sichtweite: 16.1 km
Durchbrochene Bewölkung in der Höhe von 1900 ft, Towering cumulus.
Durchbrochene Bewölkung in der Höhe von 30000 ft

METAR: PTSA 230300Z 35010KT 10SM BKN019TCU BKN300 31/25 A2969 RMK TCU SE LAST

Zeit: 19:09 (08:09 UTC)

Prognose

Neuester Wetterbericht von vor 8 Stunden und 37 Minuten, um 23:32 UTC
Gültige Prognose vom 23 um 00 UTC bis 23 um 24 UTC
Wind 7 kt aus Nord
Sichtweite: 10 km
Aufgelockert bewölkt in der Höhe von 2000 ft
Schauer in der Nähe

TAF: PTSA 222332Z 2300/2324 35007KT P6SM VCSH SCT020

Wetterbeobachtungen und Prognosen von mehr als 4000 Flughäfen (METAR und TAF Bericht).

Die verfügbaren Stationen werden durch gelbe und rote Markierungen auf der Karte dargestellt.

Führen Sie die Maus auf sie, um den Namen der Station zu sehen.

Darauf klicken, um die Beobachtung von Wetterbeobachtungen und Prognosen zu sehen.

Um die Karte zu ändern : klicken Sie auf den grünen Tasten mit einem schwarzen Kreuz Zum Vergrößern, auf den grünen Button mit einem Gedankenstrich zu verkleinern, oder auf die grünen Pfeile für benachbarte Karten.


METAR-TAF: